Time;durP1;ratioP1;P1;durP2;ratioP2;P2;SDS_P1;SDS_P2;PMS_P1;PMS_P2;Temp;Humidity;BMP_temperature;BMP_pressure;BME280_temperature;BME280_humidity;BME280_pressure;Samples;Min_cycle;Max_cycle;Signal;HPM_P1;HPM_P2
2023/07/09 00:00:56;;;;;;;13.93;5.70;;;;;;;;;;5036849;28;20139;-59
2023/07/09 00:03:26;;;;;;;13.13;5.80;;;;;;;;;;5039628;28;20052;-65
2023/07/09 00:05:54;;;;;;;12.70;5.75;;;;;;;;;;5039591;28;20574;-62
2023/07/09 00:08:27;;;;;;;15.85;5.75;;;;;;;;;;5032262;28;20073;-63
2023/07/09 00:10:55;;;;;;;11.15;5.60;;;;;;;;;;5037322;28;20143;-59
2023/07/09 00:13:24;;;;;;;11.65;5.65;;;;;;;;;;5032431;28;20083;-63
2023/07/09 00:15:53;;;;;;;14.65;5.72;;;;;;;;;;5038489;28;20053;-59
2023/07/09 00:18:21;;;;;;;11.90;5.30;;;;;;;;;;5029179;28;20056;-58
2023/07/09 00:20:51;;;;;;;11.50;5.55;;;;;;;;;;5039444;28;20056;-59
2023/07/09 00:23:20;;;;;;;12.32;5.60;;;;;;;;;;5038393;28;20132;-58
2023/07/09 00:25:48;;;;;;;12.85;5.07;;;;;;;;;;5039978;28;20132;-63
2023/07/09 00:28:17;;;;;;;12.30;5.15;;;;;;;;;;5035496;28;20708;-62
2023/07/09 00:30:46;;;;;;;10.63;4.68;;;;;;;;;;5035342;28;20056;-59
2023/07/09 00:33:15;;;;;;;9.82;4.88;;;;;;;;;;5032562;28;21352;-59
2023/07/09 00:35:46;;;;;;;16.20;5.78;;;;;;;;;;5033278;28;20110;-64
2023/07/09 00:38:21;;;;;;;11.75;5.00;;;;;;;;;;5039493;28;20525;-62
2023/07/09 00:40:49;;;;;;;8.68;4.82;;;;;;;;;;5040274;28;20040;-60
2023/07/09 00:43:18;;;;;;;9.35;5.10;;;;;;;;;;5038839;28;20519;-59
2023/07/09 00:45:46;;;;;;;9.60;5.07;;;;;;;;;;5038502;28;20498;-59
2023/07/09 00:48:17;;;;;;;8.88;5.13;;;;;;;;;;5042617;28;20086;-61
2023/07/09 00:50:50;;;;;;;11.25;4.93;;;;;;;;;;5039376;28;20049;-59
2023/07/09 00:53:22;;;;;;;9.55;4.78;;;;;;;;;;5039369;28;20480;-65
2023/07/09 00:55:53;;;;;;;11.10;5.13;;;;;;;;;;5040309;28;20460;-61
2023/07/09 00:58:26;;;;;;;9.60;4.68;;;;;;;;;;5039104;28;20072;-61
2023/07/09 01:00:56;;;;;;;10.38;4.88;;;;;;;;;;5041486;28;20132;-61
2023/07/09 01:03:29;;;;;;;11.13;5.80;;;;;;;;;;5090791;22;20055;-62
2023/07/09 01:05:58;;;;;;;10.10;4.95;;;;;;;;;;5073829;28;20573;-66
2023/07/09 01:08:30;;;;;;;9.68;4.88;;;;;;;;;;5080003;28;20048;-60
2023/07/09 01:10:59;;;;;;;10.30;4.38;;;;;;;;;;5080370;28;20043;-61
2023/07/09 01:13:28;;;;;;;11.57;5.25;;;;;;;;;;5079594;28;20387;-60
2023/07/09 01:15:57;;;;;;;8.85;4.55;;;;;;;;;;5078905;28;20044;-66
2023/07/09 01:18:25;;;;;;;10.02;4.90;;;;;;;;;;5078612;28;20515;-61
2023/07/09 01:21:00;;;;;;;7.80;4.63;;;;;;;;;;5082795;28;20142;-60
2023/07/09 01:23:29;;;;;;;8.85;4.95;;;;;;;;;;5075264;28;20543;-61
2023/07/09 01:25:57;;;;;;;10.10;5.00;;;;;;;;;;5070761;28;20513;-63
2023/07/09 01:28:25;;;;;;;10.85;4.45;;;;;;;;;;5075326;28;20074;-60
2023/07/09 01:30:56;;;;;;;11.68;4.60;;;;;;;;;;5073643;28;20479;-66
2023/07/09 01:33:24;;;;;;;8.93;4.53;;;;;;;;;;5079117;28;20075;-65
2023/07/09 01:36:00;;;;;;;15.60;5.18;;;;;;;;;;5069156;28;20102;-62
2023/07/09 01:38:30;;;;;;;10.40;4.68;;;;;;;;;;5075291;28;20048;-61
2023/07/09 01:40:59;;;;;;;10.32;4.55;;;;;;;;;;5078360;28;20059;-60
2023/07/09 01:43:28;;;;;;;8.45;4.55;;;;;;;;;;5081974;28;20040;-61
2023/07/09 01:45:57;;;;;;;9.98;4.72;;;;;;;;;;5080940;28;20562;-60
2023/07/09 01:48:26;;;;;;;10.75;4.50;;;;;;;;;;5081423;28;20824;-64
2023/07/09 01:50:55;;;;;;;12.10;4.95;;;;;;;;;;5074540;28;20055;-64
2023/07/09 01:53:24;;;;;;;10.07;4.82;;;;;;;;;;5076689;28;20097;-62
2023/07/09 01:55:55;;;;;;;9.52;4.43;;;;;;;;;;5080759;28;20131;-61
2023/07/09 01:58:24;;;;;;;10.38;4.35;;;;;;;;;;5063967;28;20220;-62
2023/07/09 02:00:53;;;;;;;8.50;4.40;;;;;;;;;;5074662;28;20144;-66
2023/07/09 02:03:22;;;;;;;9.23;4.07;;;;;;;;;;5076683;28;20059;-59
2023/07/09 02:05:51;;;;;;;8.48;4.32;;;;;;;;;;5080823;28;20093;-62
2023/07/09 02:08:19;;;;;;;8.15;4.45;;;;;;;;;;5083779;28;20044;-60
2023/07/09 02:10:49;;;;;;;9.95;4.32;;;;;;;;;;5084028;28;20128;-61
2023/07/09 02:13:19;;;;;;;9.80;4.28;;;;;;;;;;5083395;28;20609;-62
2023/07/09 02:15:47;;;;;;;8.23;4.60;;;;;;;;;;5081205;28;21116;-60
2023/07/09 02:18:16;;;;;;;10.25;4.70;;;;;;;;;;5084880;28;20044;-64
2023/07/09 02:20:46;;;;;;;8.35;3.83;;;;;;;;;;5082326;28;20122;-60
2023/07/09 02:23:15;;;;;;;11.23;4.38;;;;;;;;;;5085431;28;20147;-66
2023/07/09 02:25:43;;;;;;;9.35;4.30;;;;;;;;;;5080549;28;20497;-62
2023/07/09 02:28:12;;;;;;;10.25;4.70;;;;;;;;;;5084719;28;20083;-62
2023/07/09 02:30:41;;;;;;;7.43;3.92;;;;;;;;;;5083912;28;20071;-60
2023/07/09 02:33:10;;;;;;;8.85;4.50;;;;;;;;;;5074719;28;20047;-61
2023/07/09 02:35:38;;;;;;;11.70;4.53;;;;;;;;;;5079936;28;20471;-66
2023/07/09 02:38:06;;;;;;;9.05;4.60;;;;;;;;;;5072689;28;20167;-61
2023/07/09 02:40:35;;;;;;;9.68;4.43;;;;;;;;;;5083887;28;20148;-61
2023/07/09 02:43:03;;;;;;;7.78;4.00;;;;;;;;;;5077979;28;20134;-66
2023/07/09 02:45:31;;;;;;;7.70;4.32;;;;;;;;;;5073095;28;20067;-66
2023/07/09 02:48:01;;;;;;;10.13;4.78;;;;;;;;;;5079108;28;20047;-62
2023/07/09 02:50:29;;;;;;;8.10;4.30;;;;;;;;;;5080849;28;20056;-61
2023/07/09 02:52:58;;;;;;;8.25;4.47;;;;;;;;;;5074039;28;20628;-64
2023/07/09 02:55:26;;;;;;;8.07;3.75;;;;;;;;;;5078707;28;20079;-60
2023/07/09 02:57:54;;;;;;;8.90;4.22;;;;;;;;;;5073603;28;20435;-60
2023/07/09 03:00:23;;;;;;;8.05;4.15;;;;;;;;;;5078506;28;20183;-61
2023/07/09 03:02:51;;;;;;;9.82;4.30;;;;;;;;;;5084781;28;20121;-68
2023/07/09 03:05:21;;;;;;;10.95;4.50;;;;;;;;;;5077703;28;20056;-67
2023/07/09 03:07:49;;;;;;;7.25;3.97;;;;;;;;;;5084940;28;20071;-62
2023/07/09 03:10:18;;;;;;;7.50;4.13;;;;;;;;;;5080428;28;20051;-63
2023/07/09 03:12:46;;;;;;;8.70;4.47;;;;;;;;;;5078988;28;20516;-61
2023/07/09 03:15:14;;;;;;;7.95;4.10;;;;;;;;;;5082268;28;20686;-61
2023/07/09 03:17:43;;;;;;;7.88;3.85;;;;;;;;;;5080755;28;20126;-60
2023/07/09 03:20:13;;;;;;;9.18;4.05;;;;;;;;;;5081333;28;20219;-65
2023/07/09 03:22:42;;;;;;;7.35;3.65;;;;;;;;;;5071265;28;20044;-68
2023/07/09 03:25:11;;;;;;;10.57;4.18;;;;;;;;;;5082933;28;20056;-60
2023/07/09 03:27:39;;;;;;;9.38;4.18;;;;;;;;;;5083645;28;20419;-59
2023/07/09 03:30:08;;;;;;;6.63;3.42;;;;;;;;;;5084308;28;20323;-60
2023/07/09 03:32:36;;;;;;;8.98;3.63;;;;;;;;;;5083415;28;20052;-67
2023/07/09 03:35:05;;;;;;;9.32;3.67;;;;;;;;;;5083763;28;20050;-65
2023/07/09 03:37:34;;;;;;;7.85;4.05;;;;;;;;;;5077722;28;20105;-61
2023/07/09 03:40:04;;;;;;;6.53;3.55;;;;;;;;;;5072199;28;20561;-61
2023/07/09 03:42:32;;;;;;;9.18;3.92;;;;;;;;;;5084175;28;20104;-62
2023/07/09 03:45:01;;;;;;;9.02;3.92;;;;;;;;;;5078978;28;20405;-61
2023/07/09 03:47:29;;;;;;;8.02;4.18;;;;;;;;;;5078941;28;20036;-60
2023/07/09 03:49:57;;;;;;;7.10;4.05;;;;;;;;;;5074746;28;20058;-62
2023/07/09 03:52:26;;;;;;;6.03;3.28;;;;;;;;;;5080650;28;20458;-66
2023/07/09 03:54:55;;;;;;;9.13;3.95;;;;;;;;;;5075257;28;20485;-63
2023/07/09 03:57:26;;;;;;;7.45;3.50;;;;;;;;;;5071983;28;20043;-61
2023/07/09 03:59:54;;;;;;;8.25;3.72;;;;;;;;;;5080459;28;20056;-60
2023/07/09 04:02:22;;;;;;;5.70;3.15;;;;;;;;;;5081429;28;20452;-63
2023/07/09 04:04:51;;;;;;;9.00;3.50;;;;;;;;;;5080925;28;20493;-63
2023/07/09 04:07:19;;;;;;;7.60;3.63;;;;;;;;;;5068380;28;20117;-63
2023/07/09 04:09:48;;;;;;;6.53;3.38;;;;;;;;;;5073971;28;20135;-60
2023/07/09 04:12:16;;;;;;;10.15;3.90;;;;;;;;;;5084058;28;20495;-61
2023/07/09 04:14:46;;;;;;;6.55;3.40;;;;;;;;;;5081417;28;20040;-60
2023/07/09 04:17:15;;;;;;;10.05;3.63;;;;;;;;;;5081810;28;20044;-61
2023/07/09 04:19:43;;;;;;;6.28;3.22;;;;;;;;;;5078785;28;20473;-64
2023/07/09 04:22:12;;;;;;;7.78;3.42;;;;;;;;;;5076369;28;20040;-65
2023/07/09 04:24:40;;;;;;;8.23;3.17;;;;;;;;;;5072698;28;20054;-60
2023/07/09 04:27:09;;;;;;;6.78;3.55;;;;;;;;;;5075077;28;20496;-62
2023/07/09 04:29:38;;;;;;;8.55;3.45;;;;;;;;;;5073939;28;20120;-62
2023/07/09 04:32:08;;;;;;;7.15;3.70;;;;;;;;;;5066317;28;20079;-60
2023/07/09 04:34:38;;;;;;;5.72;3.10;;;;;;;;;;5076404;28;20106;-60
2023/07/09 04:37:08;;;;;;;6.72;3.33;;;;;;;;;;5074788;28;20048;-61
2023/07/09 04:39:37;;;;;;;6.82;3.28;;;;;;;;;;5065819;28;20101;-62
2023/07/09 04:42:05;;;;;;;7.82;3.67;;;;;;;;;;5081298;28;20051;-63
2023/07/09 04:44:34;;;;;;;7.05;3.38;;;;;;;;;;5088533;28;20113;-60
2023/07/09 04:47:05;;;;;;;6.78;3.25;;;;;;;;;;5078035;28;20818;-60
2023/07/09 04:49:35;;;;;;;6.13;3.10;;;;;;;;;;5084186;28;20084;-61
2023/07/09 04:52:03;;;;;;;6.95;3.33;;;;;;;;;;5079346;28;20137;-61
2023/07/09 04:54:32;;;;;;;7.28;3.63;;;;;;;;;;5081418;28;20102;-62
2023/07/09 04:57:01;;;;;;;5.97;3.10;;;;;;;;;;5078822;28;20048;-61
2023/07/09 04:59:30;;;;;;;6.80;3.58;;;;;;;;;;5081909;28;20048;-60
2023/07/09 05:01:58;;;;;;;6.80;3.70;;;;;;;;;;5072901;28;20073;-64
2023/07/09 05:04:27;;;;;;;5.65;2.95;;;;;;;;;;5076148;28;20171;-59
2023/07/09 05:06:56;;;;;;;6.95;3.35;;;;;;;;;;5086410;28;20139;-62
2023/07/09 05:09:25;;;;;;;6.57;3.30;;;;;;;;;;5078068;28;20138;-62
2023/07/09 05:11:53;;;;;;;6.43;3.60;;;;;;;;;;5074794;28;20060;-60
2023/07/09 05:14:21;;;;;;;6.70;2.70;;;;;;;;;;5081356;28;20106;-58
2023/07/09 05:16:50;;;;;;;7.05;3.13;;;;;;;;;;5079811;28;20106;-65
2023/07/09 05:19:18;;;;;;;8.20;3.72;;;;;;;;;;5078866;28;20044;-61
2023/07/09 05:21:47;;;;;;;7.45;3.10;;;;;;;;;;5079144;28;20048;-62
2023/07/09 05:24:16;;;;;;;6.32;3.10;;;;;;;;;;5078255;28;20040;-61
2023/07/09 05:26:45;;;;;;;5.78;2.80;;;;;;;;;;5076178;28;20055;-60
2023/07/09 05:29:13;;;;;;;5.95;3.13;;;;;;;;;;5077825;28;20629;-60
2023/07/09 05:31:42;;;;;;;6.05;3.20;;;;;;;;;;5079612;28;20043;-66
2023/07/09 05:34:10;;;;;;;6.43;2.80;;;;;;;;;;5076292;28;20083;-61
2023/07/09 05:36:39;;;;;;;7.53;2.92;;;;;;;;;;5077406;28;20554;-63
2023/07/09 05:39:07;;;;;;;6.55;2.97;;;;;;;;;;5077668;28;20084;-62
2023/07/09 05:41:37;;;;;;;4.75;3.17;;;;;;;;;;5079545;28;20040;-59
2023/07/09 05:44:05;;;;;;;7.00;3.30;;;;;;;;;;5080729;28;20091;-60
2023/07/09 05:46:36;;;;;;;6.45;3.30;;;;;;;;;;5078540;28;20131;-60
2023/07/09 05:49:05;;;;;;;7.05;3.25;;;;;;;;;;5078297;28;20070;-60
2023/07/09 05:51:34;;;;;;;8.65;3.38;;;;;;;;;;5072234;28;20077;-60
2023/07/09 05:54:02;;;;;;;5.95;3.08;;;;;;;;;;5077916;28;20180;-65
2023/07/09 05:56:31;;;;;;;7.55;3.78;;;;;;;;;;5080714;28;20052;-62
2023/07/09 05:59:01;;;;;;;7.88;2.90;;;;;;;;;;5067544;28;20048;-62
2023/07/09 06:01:29;;;;;;;6.65;2.70;;;;;;;;;;5079606;28;20048;-66
2023/07/09 06:03:57;;;;;;;9.02;3.38;;;;;;;;;;5077490;28;20082;-66
2023/07/09 06:06:26;;;;;;;5.82;2.85;;;;;;;;;;5070115;28;20044;-60
2023/07/09 06:08:54;;;;;;;5.07;2.83;;;;;;;;;;5066378;28;20094;-61
2023/07/09 06:11:23;;;;;;;5.18;3.00;;;;;;;;;;5061199;28;20098;-60
2023/07/09 06:13:52;;;;;;;6.85;3.00;;;;;;;;;;5081702;28;20055;-61
2023/07/09 06:16:21;;;;;;;6.75;2.75;;;;;;;;;;5076194;28;20102;-60
2023/07/09 06:18:50;;;;;;;8.00;3.40;;;;;;;;;;5078370;28;20151;-66
2023/07/09 06:21:18;;;;;;;5.07;3.10;;;;;;;;;;5086231;28;20128;-61
2023/07/09 06:23:47;;;;;;;7.40;2.97;;;;;;;;;;5079943;28;20479;-60
2023/07/09 06:26:15;;;;;;;5.35;2.72;;;;;;;;;;5082035;28;20549;-63
2023/07/09 06:28:43;;;;;;;5.47;3.08;;;;;;;;;;5079460;28;20140;-66
2023/07/09 06:31:12;;;;;;;5.10;2.85;;;;;;;;;;5078742;28;20458;-63
2023/07/09 06:33:41;;;;;;;5.05;3.00;;;;;;;;;;5082478;28;20195;-59
2023/07/09 06:36:10;;;;;;;4.55;2.85;;;;;;;;;;5078552;28;20083;-66
2023/07/09 06:38:38;;;;;;;5.32;3.03;;;;;;;;;;5077276;28;20138;-66
2023/07/09 06:41:06;;;;;;;4.47;2.58;;;;;;;;;;5082829;28;20400;-63
2023/07/09 06:43:38;;;;;;;9.07;2.55;;;;;;;;;;5082527;28;20488;-60
2023/07/09 06:46:08;;;;;;;5.07;2.42;;;;;;;;;;5083775;28;20078;-60
2023/07/09 06:48:39;;;;;;;2.67;1.92;;;;;;;;;;5085714;28;20048;-60
2023/07/09 06:51:09;;;;;;;5.15;2.45;;;;;;;;;;5085220;28;20126;-62
2023/07/09 06:53:37;;;;;;;5.90;2.55;;;;;;;;;;5085285;28;20050;-60
2023/07/09 06:56:05;;;;;;;3.92;2.30;;;;;;;;;;5086116;28;20083;-59
2023/07/09 06:58:34;;;;;;;6.53;2.10;;;;;;;;;;5079074;28;20108;-61
2023/07/09 07:01:03;;;;;;;3.72;2.05;;;;;;;;;;5086784;28;20474;-65
2023/07/09 07:03:32;;;;;;;3.65;2.13;;;;;;;;;;5080318;28;20058;-60
2023/07/09 07:06:00;;;;;;;3.50;2.05;;;;;;;;;;5075702;28;20539;-62
2023/07/09 07:08:31;;;;;;;3.75;2.10;;;;;;;;;;5084992;28;20052;-60
2023/07/09 07:11:02;;;;;;;3.75;1.88;;;;;;;;;;5088431;28;20120;-60
2023/07/09 07:13:31;;;;;;;5.20;2.42;;;;;;;;;;5081679;28;20090;-61
2023/07/09 07:16:00;;;;;;;6.82;2.35;;;;;;;;;;5084204;28;20138;-60
2023/07/09 07:18:28;;;;;;;5.32;2.28;;;;;;;;;;5083757;28;20054;-61
2023/07/09 07:20:57;;;;;;;5.88;2.65;;;;;;;;;;5085279;28;20093;-67
2023/07/09 07:23:25;;;;;;;4.95;2.30;;;;;;;;;;5080668;28;20055;-61
2023/07/09 07:25:55;;;;;;;4.50;2.22;;;;;;;;;;5085048;28;20512;-61
2023/07/09 07:28:23;;;;;;;5.13;2.60;;;;;;;;;;5079845;28;20500;-59
2023/07/09 07:31:02;;;;;;;5.80;2.53;;;;;;;;;;5081710;28;20061;-61
2023/07/09 07:33:30;;;;;;;3.90;2.17;;;;;;;;;;5074194;28;20052;-61
2023/07/09 07:35:59;;;;;;;4.65;1.80;;;;;;;;;;5079975;28;20063;-63
2023/07/09 07:38:47;;;;;;;4.20;2.42;;;;;;;;;;5084231;28;20040;-62
2023/07/09 07:41:17;;;;;;;5.75;2.50;;;;;;;;;;5084364;28;20098;-63
2023/07/09 07:43:45;;;;;;;4.03;2.33;;;;;;;;;;5077583;28;20040;-59
2023/07/09 07:46:14;;;;;;;6.50;2.58;;;;;;;;;;5081099;28;20131;-59
2023/07/09 07:48:42;;;;;;;8.90;2.10;;;;;;;;;;5080818;28;20055;-61
2023/07/09 07:51:11;;;;;;;3.67;2.45;;;;;;;;;;5079088;28;20078;-62
2023/07/09 07:53:39;;;;;;;7.88;2.25;;;;;;;;;;5084326;28;20040;-61
2023/07/09 07:56:08;;;;;;;8.00;2.85;;;;;;;;;;5078056;28;20047;-59
2023/07/09 07:58:38;;;;;;;4.75;2.30;;;;;;;;;;5083948;28;20048;-61
2023/07/09 08:01:06;;;;;;;6.38;2.90;;;;;;;;;;5080966;28;20045;-64
2023/07/09 08:03:35;;;;;;;6.15;2.85;;;;;;;;;;5085154;28;20143;-62
2023/07/09 08:06:04;;;;;;;5.25;2.35;;;;;;;;;;5080774;28;20052;-62
2023/07/09 08:08:32;;;;;;;8.90;2.58;;;;;;;;;;5078783;28;20059;-61
2023/07/09 08:11:04;;;;;;;7.22;2.33;;;;;;;;;;5081723;28;20044;-64
2023/07/09 08:13:33;;;;;;;4.35;2.35;;;;;;;;;;5080458;28;20040;-67
2023/07/09 08:16:03;;;;;;;6.70;2.50;;;;;;;;;;5082116;28;20104;-62
2023/07/09 08:18:32;;;;;;;4.65;2.60;;;;;;;;;;5080667;28;20052;-67
2023/07/09 08:21:01;;;;;;;8.27;2.42;;;;;;;;;;5084040;28;20043;-61
2023/07/09 08:23:29;;;;;;;6.40;2.30;;;;;;;;;;5075966;28;20040;-65
2023/07/09 08:25:58;;;;;;;5.18;2.22;;;;;;;;;;5084085;28;20160;-67
2023/07/09 08:28:26;;;;;;;7.38;2.72;;;;;;;;;;5078152;28;20119;-61
2023/07/09 08:30:55;;;;;;;9.43;2.90;;;;;;;;;;5079761;28;20724;-61
2023/07/09 08:33:25;;;;;;;5.00;2.70;;;;;;;;;;5078098;28;20044;-61
2023/07/09 08:35:55;;;;;;;5.88;2.75;;;;;;;;;;5080455;28;20155;-62
2023/07/09 08:38:24;;;;;;;7.03;3.35;;;;;;;;;;5085556;28;20043;-62
2023/07/09 08:40:56;;;;;;;7.50;2.67;;;;;;;;;;5080205;28;20048;-61
2023/07/09 08:43:31;;;;;;;4.85;2.55;;;;;;;;;;5081256;28;20101;-64
2023/07/09 08:46:03;;;;;;;5.40;2.70;;;;;;;;;;5076926;28;20472;-62
2023/07/09 08:48:34;;;;;;;4.72;2.53;;;;;;;;;;5064328;28;20599;-64
2023/07/09 08:51:05;;;;;;;5.20;2.33;;;;;;;;;;5074712;28;20072;-67
2023/07/09 08:53:37;;;;;;;5.82;2.67;;;;;;;;;;5077092;28;20040;-63
2023/07/09 08:56:09;;;;;;;8.60;2.80;;;;;;;;;;5075944;28;20048;-62
2023/07/09 08:58:38;;;;;;;4.75;2.33;;;;;;;;;;5066699;28;20060;-68
2023/07/09 09:01:07;;;;;;;5.22;2.60;;;;;;;;;;5080388;28;20347;-65
2023/07/09 09:03:40;;;;;;;6.43;2.50;;;;;;;;;;5078786;28;20047;-61
2023/07/09 09:06:13;;;;;;;6.05;2.60;;;;;;;;;;5074828;28;20048;-62
2023/07/09 09:08:42;;;;;;;6.40;2.45;;;;;;;;;;5078868;28;20044;-61
2023/07/09 09:11:15;;;;;;;4.55;2.40;;;;;;;;;;5076550;28;20062;-64
2023/07/09 09:13:44;;;;;;;5.55;2.85;;;;;;;;;;5079715;28;20040;-64
2023/07/09 09:16:16;;;;;;;4.88;2.50;;;;;;;;;;5077848;28;20036;-62
2023/07/09 09:18:46;;;;;;;4.10;2.03;;;;;;;;;;5083022;28;20060;-65
2023/07/09 09:21:18;;;;;;;5.15;2.40;;;;;;;;;;5074818;28;20101;-60
2023/07/09 09:23:52;;;;;;;5.20;2.22;;;;;;;;;;5079446;28;20036;-63
2023/07/09 09:26:30;;;;;;;5.82;3.08;;;;;;;;;;5078689;28;20048;-62
2023/07/09 09:28:59;;;;;;;6.15;2.53;;;;;;;;;;5069210;28;20679;-63
2023/07/09 09:31:28;;;;;;;4.22;2.33;;;;;;;;;;5081379;28;20052;-61
2023/07/09 09:33:58;;;;;;;7.13;3.20;;;;;;;;;;5082543;28;20469;-61
2023/07/09 09:36:27;;;;;;;8.65;2.55;;;;;;;;;;5081148;28;20508;-63
2023/07/09 09:38:55;;;;;;;5.43;2.65;;;;;;;;;;5076837;28;20085;-67
2023/07/09 09:41:26;;;;;;;3.65;2.10;;;;;;;;;;5083021;28;20048;-61
2023/07/09 09:43:56;;;;;;;4.53;2.30;;;;;;;;;;5078635;28;20047;-61
2023/07/09 09:46:26;;;;;;;8.40;2.85;;;;;;;;;;5066238;28;20562;-64
2023/07/09 09:48:56;;;;;;;3.75;2.25;;;;;;;;;;5080175;28;20119;-62
2023/07/09 09:51:26;;;;;;;5.07;2.53;;;;;;;;;;5079679;28;20405;-62
2023/07/09 09:53:57;;;;;;;4.75;2.20;;;;;;;;;;5082076;28;20044;-68
2023/07/09 09:56:28;;;;;;;9.65;2.67;;;;;;;;;;5078958;28;20136;-63
2023/07/09 09:58:57;;;;;;;3.97;2.30;;;;;;;;;;5080244;28;20052;-63
2023/07/09 10:01:29;;;;;;;5.90;2.88;;;;;;;;;;5078555;28;20068;-63
2023/07/09 10:03:58;;;;;;;5.68;2.25;;;;;;;;;;5064159;28;20118;-63
2023/07/09 10:06:34;;;;;;;6.07;2.40;;;;;;;;;;5060726;28;20053;-63
2023/07/09 10:09:06;;;;;;;3.53;2.08;;;;;;;;;;5057101;28;20363;-63
2023/07/09 10:11:44;;;;;;;4.07;2.33;;;;;;;;;;5059271;28;20488;-62
2023/07/09 10:14:19;;;;;;;4.93;2.53;;;;;;;;;;5062645;28;20048;-68
2023/07/09 10:16:50;;;;;;;5.63;2.38;;;;;;;;;;5056060;28;20079;-62
2023/07/09 10:19:24;;;;;;;3.97;2.13;;;;;;;;;;5064758;28;20095;-63
2023/07/09 10:21:57;;;;;;;4.45;2.30;;;;;;;;;;5063488;28;20458;-63
2023/07/09 10:24:34;;;;;;;5.10;2.40;;;;;;;;;;5063835;28;20068;-69
2023/07/09 10:27:12;;;;;;;4.97;2.10;;;;;;;;;;5064760;28;20452;-68
2023/07/09 10:29:53;;;;;;;3.85;2.28;;;;;;;;;;5062401;28;20068;-68
2023/07/09 10:32:36;;;;;;;5.32;2.53;;;;;;;;;;5063524;28;20057;-65
2023/07/09 10:35:07;;;;;;;7.82;2.75;;;;;;;;;;5064143;28;20051;-63
2023/07/09 10:37:53;;;;;;;4.78;2.13;;;;;;;;;;5059272;28;20049;-62
2023/07/09 10:40:25;;;;;;;5.35;2.33;;;;;;;;;;5066589;28;20052;-65
2023/07/09 10:42:57;;;;;;;6.22;2.97;;;;;;;;;;5056772;28;20059;-69
2023/07/09 10:45:29;;;;;;;3.65;2.08;;;;;;;;;;5060934;28;20052;-66
2023/07/09 10:48:00;;;;;;;5.32;2.70;;;;;;;;;;5054216;28;20048;-61
2023/07/09 10:50:30;;;;;;;5.70;2.83;;;;;;;;;;5054866;28;20040;-63
2023/07/09 10:53:04;;;;;;;4.82;2.10;;;;;;;;;;5054406;28;20075;-69
2023/07/09 10:55:34;;;;;;;4.70;2.17;;;;;;;;;;5056787;28;20068;-63
2023/07/09 10:58:04;;;;;;;4.90;2.13;;;;;;;;;;5059821;28;20139;-62
2023/07/09 11:00:35;;;;;;;5.47;2.22;;;;;;;;;;5058112;28;20065;-63
2023/07/09 11:03:07;;;;;;;3.88;2.10;;;;;;;;;;5056762;28;20141;-64
2023/07/09 11:05:36;;;;;;;4.25;2.33;;;;;;;;;;5050656;28;20060;-65
2023/07/09 11:08:07;;;;;;;4.85;2.50;;;;;;;;;;5060075;28;20271;-62
2023/07/09 11:10:38;;;;;;;4.57;2.17;;;;;;;;;;5051458;28;20527;-64
2023/07/09 11:13:10;;;;;;;3.67;2.53;;;;;;;;;;5068276;28;20576;-63
2023/07/09 11:15:40;;;;;;;4.82;2.33;;;;;;;;;;5060199;28;20102;-69
2023/07/09 11:18:12;;;;;;;4.53;2.25;;;;;;;;;;5056012;28;20733;-62
2023/07/09 11:20:44;;;;;;;3.22;2.00;;;;;;;;;;5053512;28;20088;-63
2023/07/09 11:23:20;;;;;;;4.97;2.70;;;;;;;;;;5059774;28;20044;-68
2023/07/09 11:25:50;;;;;;;4.28;2.10;;;;;;;;;;5058524;28;20134;-63
2023/07/09 11:28:18;;;;;;;6.38;2.50;;;;;;;;;;5061546;28;20045;-62
2023/07/09 11:30:48;;;;;;;4.22;2.22;;;;;;;;;;5070370;28;20059;-63
2023/07/09 11:33:17;;;;;;;5.28;2.35;;;;;;;;;;5057625;28;20853;-61
2023/07/09 11:35:54;;;;;;;4.25;2.10;;;;;;;;;;5067456;28;20064;-67
2023/07/09 11:38:25;;;;;;;6.30;2.22;;;;;;;;;;5060250;28;20076;-63
2023/07/09 11:40:54;;;;;;;4.25;2.28;;;;;;;;;;5056686;28;20109;-65
2023/07/09 11:43:33;;;;;;;5.82;2.20;;;;;;;;;;5047703;28;20070;-69
2023/07/09 11:46:07;;;;;;;4.43;2.40;;;;;;;;;;5056467;28;20114;-61
2023/07/09 11:48:36;;;;;;;4.90;2.53;;;;;;;;;;5062124;28;20045;-62
2023/07/09 11:51:08;;;;;;;5.45;2.20;;;;;;;;;;5063268;28;20053;-65
2023/07/09 11:53:40;;;;;;;5.32;2.40;;;;;;;;;;5051846;28;20056;-64
2023/07/09 11:56:10;;;;;;;5.88;2.20;;;;;;;;;;5052938;28;20467;-61
2023/07/09 11:58:38;;;;;;;4.88;2.65;;;;;;;;;;5059801;28;20076;-62
2023/07/09 12:01:15;;;;;;;4.70;2.28;;;;;;;;;;5051703;28;20078;-65
2023/07/09 12:03:45;;;;;;;4.53;2.60;;;;;;;;;;5071479;28;20083;-64
2023/07/09 12:06:18;;;;;;;5.00;2.30;;;;;;;;;;5083790;28;20550;-63
2023/07/09 12:08:48;;;;;;;4.68;2.17;;;;;;;;;;5075471;28;20047;-63
2023/07/09 12:11:20;;;;;;;3.53;2.20;;;;;;;;;;5085446;28;20043;-61
2023/07/09 12:13:49;;;;;;;3.33;2.28;;;;;;;;;;5084507;28;20048;-64
2023/07/09 12:16:22;;;;;;;5.35;2.40;;;;;;;;;;5075680;28;20469;-65
2023/07/09 12:18:51;;;;;;;3.97;2.15;;;;;;;;;;5068163;28;20592;-64
2023/07/09 12:21:19;;;;;;;2.60;1.80;;;;;;;;;;5082222;28;20103;-64
2023/07/09 12:23:50;;;;;;;4.35;2.38;;;;;;;;;;5078793;28;20416;-64
2023/07/09 12:26:19;;;;;;;4.28;2.40;;;;;;;;;;5076678;28;20051;-63
2023/07/09 12:28:51;;;;;;;6.60;2.20;;;;;;;;;;5077929;28;20044;-69
2023/07/09 12:31:20;;;;;;;3.80;1.98;;;;;;;;;;5075027;28;20111;-64
2023/07/09 12:33:49;;;;;;;4.68;2.70;;;;;;;;;;5064555;28;20053;-62
2023/07/09 12:36:19;;;;;;;3.42;2.10;;;;;;;;;;5083171;28;20139;-62
2023/07/09 12:38:48;;;;;;;4.10;2.22;;;;;;;;;;5085262;28;20044;-65
2023/07/09 12:41:21;;;;;;;3.90;2.58;;;;;;;;;;5086337;28;20475;-61
2023/07/09 12:43:50;;;;;;;6.88;2.30;;;;;;;;;;5075640;28;20115;-66
2023/07/09 12:46:19;;;;;;;4.00;2.40;;;;;;;;;;5067881;28;20049;-62
2023/07/09 12:48:47;;;;;;;3.78;2.22;;;;;;;;;;5077358;28;20852;-64
2023/07/09 12:51:17;;;;;;;5.35;2.08;;;;;;;;;;5078385;28;20052;-63
2023/07/09 12:53:46;;;;;;;5.18;2.10;;;;;;;;;;5082758;28;20052;-63
2023/07/09 12:56:15;;;;;;;3.28;1.98;;;;;;;;;;5079349;28;20135;-65
2023/07/09 12:58:45;;;;;;;4.80;2.00;;;;;;;;;;5087653;28;20051;-64
2023/07/09 13:01:16;;;;;;;9.93;2.28;;;;;;;;;;5077374;28;20044;-65
2023/07/09 13:03:55;;;;;;;5.82;2.20;;;;;;;;;;5066021;28;20482;-61
2023/07/09 13:06:28;;;;;;;4.00;1.75;;;;;;;;;;5060276;28;20106;-60
2023/07/09 13:08:58;;;;;;;5.40;2.65;;;;;;;;;;5060210;28;20057;-67
2023/07/09 13:11:27;;;;;;;3.97;2.13;;;;;;;;;;5051014;28;20422;-63
2023/07/09 13:13:58;;;;;;;4.55;2.30;;;;;;;;;;5059086;28;20513;-61
2023/07/09 13:16:27;;;;;;;3.88;1.85;;;;;;;;;;5058651;28;20048;-64
2023/07/09 13:18:56;;;;;;;5.07;2.22;;;;;;;;;;5059911;28;20528;-63
2023/07/09 13:21:25;;;;;;;5.10;2.13;;;;;;;;;;5060125;28;20052;-64
2023/07/09 13:23:55;;;;;;;3.10;2.00;;;;;;;;;;5059401;28;20055;-65
2023/07/09 13:26:23;;;;;;;6.20;3.05;;;;;;;;;;5053359;28;20045;-68
2023/07/09 13:28:51;;;;;;;3.28;1.90;;;;;;;;;;5056906;28;20567;-61
2023/07/09 13:31:22;;;;;;;4.03;1.70;;;;;;;;;;5060719;28;20569;-63
2023/07/09 13:33:54;;;;;;;3.72;1.98;;;;;;;;;;5057619;28;20048;-66
2023/07/09 13:36:22;;;;;;;4.22;2.08;;;;;;;;;;5055082;28;20055;-61
2023/07/09 13:38:51;;;;;;;4.93;2.17;;;;;;;;;;5058971;28;20684;-62
2023/07/09 13:41:22;;;;;;;3.15;1.83;;;;;;;;;;5063186;28;20497;-60
2023/07/09 13:43:51;;;;;;;7.60;2.50;;;;;;;;;;5059888;28;20040;-60
2023/07/09 13:46:19;;;;;;;4.25;1.90;;;;;;;;;;5060764;28;20460;-66
2023/07/09 13:48:49;;;;;;;6.15;2.50;;;;;;;;;;5062654;28;20651;-61
2023/07/09 13:51:19;;;;;;;7.07;1.95;;;;;;;;;;5057034;28;20056;-66
2023/07/09 13:53:48;;;;;;;8.00;2.50;;;;;;;;;;5060144;28;20148;-60
2023/07/09 13:56:16;;;;;;;18.02;2.30;;;;;;;;;;5062081;28;20036;-61
2023/07/09 13:58:45;;;;;;;7.82;2.25;;;;;;;;;;5059029;28;20102;-68
2023/07/09 14:01:14;;;;;;;13.07;2.58;;;;;;;;;;5062958;28;20055;-62
2023/07/09 14:03:43;;;;;;;19.30;2.70;;;;;;;;;;5076124;28;20400;-68
2023/07/09 14:06:15;;;;;;;13.45;2.58;;;;;;;;;;5061352;28;20404;-61
2023/07/09 14:08:43;;;;;;;19.52;2.53;;;;;;;;;;5065697;28;20048;-68
2023/07/09 14:11:12;;;;;;;18.70;2.60;;;;;;;;;;5067603;28;20122;-64
2023/07/09 14:13:41;;;;;;;5.35;2.22;;;;;;;;;;5067343;28;20382;-63
2023/07/09 14:16:11;;;;;;;5.43;2.28;;;;;;;;;;5072911;28;20692;-62
2023/07/09 14:18:39;;;;;;;12.38;2.85;;;;;;;;;;5078963;28;20048;-65
2023/07/09 14:21:12;;;;;;;4.40;2.20;;;;;;;;;;5072754;28;20047;-64
2023/07/09 14:23:42;;;;;;;11.85;2.63;;;;;;;;;;5061838;28;20064;-67
2023/07/09 14:26:11;;;;;;;5.68;3.03;;;;;;;;;;5069227;28;20453;-62
2023/07/09 14:28:39;;;;;;;8.30;2.78;;;;;;;;;;5070495;28;20523;-62
2023/07/09 14:31:15;;;;;;;9.05;2.40;;;;;;;;;;5077412;28;20625;-64
2023/07/09 14:33:43;;;;;;;5.22;2.55;;;;;;;;;;5080379;28;20704;-61
2023/07/09 14:36:12;;;;;;;7.95;2.78;;;;;;;;;;5077635;28;20044;-65
2023/07/09 14:38:42;;;;;;;4.10;2.33;;;;;;;;;;5074824;28;20203;-63
2023/07/09 14:41:19;;;;;;;3.63;2.33;;;;;;;;;;5070964;28;20344;-63
2023/07/09 14:43:47;;;;;;;8.82;2.65;;;;;;;;;;5078752;28;20048;-65
2023/07/09 14:46:15;;;;;;;7.75;2.33;;;;;;;;;;5077316;28;20468;-62
2023/07/09 14:48:44;;;;;;;6.07;2.47;;;;;;;;;;5080005;28;20435;-64
2023/07/09 14:51:17;;;;;;;6.13;2.83;;;;;;;;;;5070336;28;20125;-64
2023/07/09 14:53:47;;;;;;;11.53;2.30;;;;;;;;;;5075686;28;20040;-63
2023/07/09 14:56:16;;;;;;;10.75;2.90;;;;;;;;;;5067599;28;20051;-69